createdAt,value
2022-12-04T00:02:23.310Z,15.05
2022-12-04T00:04:53.679Z,14.23
2022-12-04T00:07:22.987Z,15.35
2022-12-04T00:09:51.614Z,14.55
2022-12-04T00:12:20.399Z,15.27
2022-12-04T00:15:23.512Z,14.98
2022-12-04T00:17:37.550Z,14.35
2022-12-04T00:20:09.190Z,14.55
2022-12-04T00:22:37.764Z,16.23
2022-12-04T00:25:06.878Z,15.75
2022-12-04T00:27:35.462Z,14.50
2022-12-04T00:30:04.084Z,13.90
2022-12-04T00:32:32.668Z,13.70
2022-12-04T00:35:01.144Z,15.30
2022-12-04T00:37:31.142Z,14.38
2022-12-04T00:39:59.740Z,15.20
2022-12-04T00:42:28.287Z,14.55
2022-12-04T00:44:56.863Z,14.95
2022-12-04T00:47:25.428Z,15.27
2022-12-04T00:50:03.216Z,15.55
2022-12-04T00:52:34.302Z,14.83
2022-12-04T00:55:02.881Z,14.40
2022-12-04T00:57:31.659Z,15.13
2022-12-04T01:00:00.250Z,15.00
2022-12-04T01:02:28.878Z,14.98
2022-12-04T01:04:57.472Z,13.85
2022-12-04T01:07:26.146Z,15.65
2022-12-04T01:09:56.450Z,14.15
2022-12-04T01:12:25.299Z,14.43
2022-12-04T01:14:53.845Z,14.68
2022-12-04T01:17:22.386Z,14.75
2022-12-04T01:19:51.019Z,13.73
2022-12-04T01:22:19.550Z,14.10
2022-12-04T01:24:48.111Z,14.45
2022-12-04T01:27:18.061Z,13.48
2022-12-04T01:29:46.597Z,13.38
2022-12-04T01:32:15.178Z,15.10
2022-12-04T01:34:43.859Z,13.93
2022-12-04T01:37:12.436Z,14.18
2022-12-04T01:39:40.955Z,14.55
2022-12-04T01:42:14.460Z,14.05
2022-12-04T01:45:05.880Z,15.27
2022-12-04T01:47:34.646Z,13.98
2022-12-04T01:50:03.191Z,13.95
2022-12-04T01:52:31.823Z,14.82
2022-12-04T01:55:02.677Z,13.77
2022-12-04T01:57:33.790Z,13.77
2022-12-04T02:00:08.841Z,15.55
2022-12-04T02:02:40.547Z,14.63
2022-12-04T02:05:11.838Z,14.02
2022-12-04T02:07:42.669Z,14.50
2022-12-04T02:10:12.174Z,15.27
2022-12-04T02:12:48.086Z,14.82
2022-12-04T02:15:24.454Z,14.23
2022-12-04T02:18:00.088Z,13.32
2022-12-04T02:20:34.306Z,13.63
2022-12-04T02:23:43.619Z,14.68
2022-12-04T02:26:28.500Z,14.25
2022-12-04T02:29:04.300Z,13.38
2022-12-04T02:31:38.226Z,14.57
2022-12-04T02:34:12.434Z,13.35
2022-12-04T02:36:49.274Z,15.05
2022-12-04T02:39:24.407Z,14.85
2022-12-04T02:41:58.792Z,18.67
2022-12-04T02:44:32.133Z,13.95
2022-12-04T02:47:03.784Z,15.20
2022-12-04T02:49:35.881Z,16.60
2022-12-04T02:52:08.218Z,17.15
2022-12-04T02:54:40.016Z,15.70
2022-12-04T02:57:12.788Z,15.10
2022-12-04T02:59:45.268Z,18.98
2022-12-04T03:02:18.702Z,18.42
2022-12-04T03:04:50.878Z,15.90
2022-12-04T03:07:35.427Z,15.85
2022-12-04T03:10:08.262Z,15.93
2022-12-04T03:12:44.790Z,18.40
2022-12-04T03:15:20.804Z,16.50
2022-12-04T03:17:54.688Z,17.75
2022-12-04T03:20:24.529Z,15.80
2022-12-04T03:22:57.958Z,15.98
2022-12-04T03:25:33.434Z,14.80
2022-12-04T03:28:05.065Z,15.55
2022-12-04T03:30:40.560Z,17.13
2022-12-04T03:33:14.246Z,18.23
2022-12-04T03:35:48.777Z,16.27
2022-12-04T03:38:23.652Z,17.00
2022-12-04T03:41:01.166Z,15.52
2022-12-04T03:43:35.439Z,16.20
2022-12-04T03:46:11.272Z,16.23
2022-12-04T03:48:43.989Z,16.75
2022-12-04T03:51:19.159Z,16.05
2022-12-04T03:53:54.896Z,17.10
2022-12-04T03:56:27.777Z,18.42
2022-12-04T03:59:01.626Z,16.17
2022-12-04T04:01:39.560Z,16.98
2022-12-04T04:04:12.776Z,17.70
2022-12-04T04:06:48.504Z,17.17
2022-12-04T04:09:20.794Z,17.85
2022-12-04T04:11:54.494Z,17.52
2022-12-04T04:14:45.350Z,15.43
2022-12-04T04:17:38.706Z,15.52
2022-12-04T04:20:28.342Z,17.67
2022-12-04T04:23:18.011Z,16.67
2022-12-04T04:25:48.553Z,16.98
2022-12-04T04:28:31.500Z,15.98
2022-12-04T04:31:07.678Z,17.15
2022-12-04T04:33:43.754Z,17.73
2022-12-04T04:36:19.340Z,18.02
2022-12-04T04:38:55.556Z,16.83
2022-12-04T04:41:32.408Z,18.38
2022-12-04T04:44:09.825Z,17.02
2022-12-04T04:46:42.876Z,18.38
2022-12-04T04:49:15.896Z,18.85
2022-12-04T04:51:45.215Z,18.48
2022-12-04T04:54:15.948Z,18.50
2022-12-04T04:56:45.959Z,17.05
2022-12-04T04:59:15.443Z,17.63
2022-12-04T05:01:46.464Z,17.23
2022-12-04T05:04:16.578Z,18.48
2022-12-04T05:06:45.093Z,18.30
2022-12-04T05:09:13.625Z,19.25
2022-12-04T05:11:42.173Z,19.50
2022-12-04T05:14:10.831Z,19.45
2022-12-04T05:16:41.069Z,20.10
2022-12-04T05:19:27.060Z,19.23
2022-12-04T05:21:57.653Z,19.20
2022-12-04T05:24:26.283Z,20.10
2022-12-04T05:26:54.809Z,18.23
2022-12-04T05:29:23.393Z,17.98
2022-12-04T05:31:51.981Z,18.42
2022-12-04T05:34:20.504Z,17.58
2022-12-04T05:36:49.063Z,18.77
2022-12-04T05:39:19.238Z,17.80
2022-12-04T05:41:48.547Z,18.55
2022-12-04T05:44:17.160Z,17.15
2022-12-04T05:46:45.860Z,17.65
2022-12-04T05:49:14.487Z,20.52
2022-12-04T05:51:43.072Z,18.70
2022-12-04T05:54:11.692Z,19.08
2022-12-04T05:56:41.701Z,19.90
2022-12-04T05:59:10.345Z,19.95
2022-12-04T06:01:39.058Z,21.90
2022-12-04T06:04:07.803Z,18.80
2022-12-04T06:06:36.414Z,16.38
2022-12-04T06:09:06.224Z,17.48
2022-12-04T06:14:07.542Z,18.17
2022-12-04T06:16:39.581Z,17.88
2022-12-04T06:19:10.620Z,19.10
2022-12-04T06:21:41.669Z,18.27
2022-12-04T06:24:14.611Z,20.33
2022-12-04T06:27:04.115Z,18.33
2022-12-04T06:29:34.527Z,18.58
2022-12-04T06:32:03.238Z,18.80
2022-12-04T06:34:32.615Z,18.73
2022-12-04T06:37:01.207Z,19.20
2022-12-04T06:39:29.895Z,18.05
2022-12-04T06:41:58.465Z,17.85
2022-12-04T06:44:27.064Z,17.40
2022-12-04T06:47:00.781Z,18.77
2022-12-04T06:49:29.945Z,16.70
2022-12-04T06:51:58.547Z,17.83
2022-12-04T06:54:27.370Z,17.77
2022-12-04T06:56:55.933Z,17.47
2022-12-04T06:59:24.496Z,17.50
2022-12-04T07:01:53.348Z,18.48
2022-12-04T07:04:24.851Z,17.92
2022-12-04T07:06:53.458Z,18.10
2022-12-04T07:09:22.177Z,17.90
2022-12-04T07:11:50.794Z,15.98
2022-12-04T07:14:19.401Z,18.48
2022-12-04T07:16:48.005Z,20.50
2022-12-04T07:19:16.682Z,18.38
2022-12-04T07:21:46.712Z,18.10
2022-12-04T07:24:17.376Z,17.95
2022-12-04T07:26:46.323Z,16.85
2022-12-04T07:29:15.145Z,17.70
2022-12-04T07:31:44.743Z,17.80
2022-12-04T07:34:13.493Z,16.85
2022-12-04T07:36:42.271Z,16.38
2022-12-04T07:39:12.303Z,17.83
2022-12-04T07:41:41.742Z,16.85
2022-12-04T07:44:10.528Z,17.38
2022-12-04T07:46:39.170Z,16.65
2022-12-04T07:49:07.851Z,16.35
2022-12-04T07:51:36.715Z,17.27
2022-12-04T07:54:05.478Z,18.23
2022-12-04T07:56:35.518Z,17.15
2022-12-04T07:59:04.219Z,17.92
2022-12-04T08:01:33.478Z,17.58
2022-12-04T08:04:03.403Z,17.85
2022-12-04T08:06:35.305Z,16.50
2022-12-04T08:09:09.453Z,17.17
2022-12-04T08:11:40.219Z,16.75
2022-12-04T08:14:10.038Z,17.65
2022-12-04T08:19:07.183Z,16.92
2022-12-04T08:21:36.598Z,17.50
2022-12-04T08:24:05.419Z,17.70
2022-12-04T08:26:34.532Z,18.33
2022-12-04T08:29:05.631Z,17.95
2022-12-04T08:31:35.853Z,17.20
2022-12-04T08:34:06.798Z,17.65
2022-12-04T08:36:36.267Z,17.38
2022-12-04T08:39:06.256Z,17.92
2022-12-04T08:41:35.201Z,18.15
2022-12-04T08:44:05.883Z,17.30
2022-12-04T08:46:35.199Z,18.00
2022-12-04T08:49:07.075Z,18.88
2022-12-04T08:51:36.126Z,17.52
2022-12-04T08:54:06.941Z,19.63
2022-12-04T08:56:37.518Z,19.30
2022-12-04T08:59:08.310Z,17.55
2022-12-04T09:01:37.017Z,18.48
2022-12-04T09:04:06.003Z,17.42
2022-12-04T09:06:34.633Z,17.95
2022-12-04T09:09:03.236Z,18.35
2022-12-04T09:11:33.037Z,18.30
2022-12-04T09:14:03.508Z,18.52
2022-12-04T09:16:33.782Z,18.77
2022-12-04T09:19:02.885Z,19.42
2022-12-04T09:21:31.531Z,18.37
2022-12-04T09:24:00.894Z,19.10
2022-12-04T09:26:31.633Z,18.77
2022-12-04T09:29:02.861Z,18.55
2022-12-04T09:31:33.992Z,17.42
2022-12-04T09:34:03.376Z,18.20
2022-12-04T09:36:32.079Z,17.52
2022-12-04T09:39:00.656Z,18.10
2022-12-04T09:42:03.978Z,18.05
2022-12-04T09:44:36.436Z,16.80
2022-12-04T09:47:11.104Z,18.08
2022-12-04T09:49:43.337Z,19.17
2022-12-04T09:52:24.870Z,18.38
2022-12-04T09:54:55.164Z,18.02
2022-12-04T09:57:29.559Z,19.73
2022-12-04T09:59:58.904Z,19.88
2022-12-04T10:02:37.948Z,17.83
2022-12-04T10:05:09.091Z,19.27
2022-12-04T10:07:45.488Z,19.95
2022-12-04T10:10:20.950Z,20.85
2022-12-04T10:12:58.111Z,22.13
2022-12-04T10:15:38.824Z,23.38
2022-12-04T10:18:31.011Z,20.85
2022-12-04T10:21:11.501Z,20.45
2022-12-04T10:23:50.211Z,19.67
2022-12-04T10:26:22.996Z,20.42
2022-12-04T10:28:56.379Z,22.70
2022-12-04T10:31:27.579Z,19.83
2022-12-04T10:34:04.073Z,27.77
2022-12-04T10:36:36.070Z,22.55
2022-12-04T10:39:10.762Z,21.00
2022-12-04T10:41:46.264Z,22.27
2022-12-04T10:44:16.514Z,23.10
2022-12-04T10:46:46.497Z,22.83
2022-12-04T10:49:20.871Z,22.05
2022-12-04T10:51:50.108Z,21.23
2022-12-04T10:54:22.807Z,22.88
2022-12-04T10:56:56.211Z,19.00
2022-12-04T10:59:25.425Z,20.50
2022-12-04T11:02:06.880Z,22.45
2022-12-04T11:04:37.372Z,20.88
2022-12-04T11:07:08.297Z,21.65
2022-12-04T11:09:37.044Z,66.35
2022-12-04T11:12:11.051Z,41.47
2022-12-04T11:14:44.060Z,65.82
2022-12-04T11:17:18.395Z,94.07
2022-12-04T11:19:48.984Z,114.20
2022-12-04T11:22:20.643Z,34.78
2022-12-04T11:24:54.286Z,23.42
2022-12-04T11:27:27.898Z,23.48
2022-12-04T11:29:57.881Z,21.75
2022-12-04T11:32:30.507Z,20.90
2022-12-04T11:35:08.761Z,21.58
2022-12-04T11:37:45.194Z,22.40
2022-12-04T11:40:20.475Z,22.20
2022-12-04T11:43:03.915Z,21.70
2022-12-04T11:45:33.535Z,21.73
2022-12-04T11:48:04.877Z,21.35
2022-12-04T11:50:47.435Z,24.80
2022-12-04T11:53:20.277Z,21.90
2022-12-04T12:00:44.035Z,21.30
2022-12-04T12:03:17.336Z,21.73
2022-12-04T12:06:04.099Z,23.02
2022-12-04T12:08:45.879Z,22.05
2022-12-04T12:11:27.219Z,24.00
2022-12-04T12:14:05.326Z,22.42
2022-12-04T12:16:50.060Z,22.52
2022-12-04T12:19:43.375Z,21.88
2022-12-04T12:22:29.471Z,21.90
2022-12-04T12:25:07.929Z,21.92
2022-12-04T12:27:59.773Z,21.90
2022-12-04T12:30:32.713Z,20.42
2022-12-04T12:33:12.123Z,21.77
2022-12-04T12:35:46.971Z,22.63
2022-12-04T12:38:22.666Z,21.73
2022-12-04T12:40:59.281Z,23.25
2022-12-04T12:43:31.657Z,21.27
2022-12-04T12:46:07.963Z,23.42
2022-12-04T12:48:44.733Z,27.83
2022-12-04T12:51:29.975Z,23.45
2022-12-04T12:54:10.838Z,30.08
2022-12-04T12:56:47.907Z,22.15
2022-12-04T12:59:28.476Z,20.73
2022-12-04T13:02:02.748Z,20.00
2022-12-04T13:04:39.093Z,20.92
2022-12-04T13:07:25.174Z,29.75
2022-12-04T13:10:02.006Z,22.65
2022-12-04T13:12:36.636Z,22.05
2022-12-04T13:15:08.984Z,20.30
2022-12-04T13:17:41.024Z,29.23
2022-12-04T13:20:19.555Z,22.70
2022-12-04T13:22:59.024Z,23.13
2022-12-04T13:25:43.253Z,23.23
2022-12-04T13:28:25.112Z,35.20
2022-12-04T13:31:01.071Z,27.20
2022-12-04T13:33:46.578Z,20.80
2022-12-04T13:36:35.451Z,20.45
2022-12-04T13:39:30.173Z,22.23
2022-12-04T13:42:04.360Z,20.88
2022-12-04T13:44:34.935Z,28.10
2022-12-04T13:47:06.486Z,22.67
2022-12-04T13:49:37.914Z,31.80
2022-12-04T13:52:22.075Z,22.52
2022-12-04T13:54:59.493Z,21.40
2022-12-04T13:57:29.801Z,21.95
2022-12-04T14:00:07.072Z,20.92
2022-12-04T14:02:50.166Z,20.50
2022-12-04T14:05:30.883Z,19.27
2022-12-04T14:08:07.609Z,19.83
2022-12-04T14:10:39.905Z,20.25
2022-12-04T14:13:21.179Z,20.67
2022-12-04T14:15:50.137Z,24.02
2022-12-04T14:18:29.585Z,21.23
2022-12-04T14:21:05.709Z,21.38
2022-12-04T14:23:40.572Z,21.27
2022-12-04T14:26:37.245Z,21.13
2022-12-04T14:29:43.198Z,21.20
2022-12-04T14:32:17.377Z,20.05
2022-12-04T14:34:48.270Z,20.10
2022-12-04T14:37:26.303Z,21.10
2022-12-04T14:39:57.190Z,20.35
2022-12-04T14:42:28.851Z,20.33
2022-12-04T14:45:01.536Z,20.40
2022-12-04T14:47:45.211Z,19.02
2022-12-04T14:50:28.664Z,21.92
2022-12-04T14:53:05.210Z,22.08
2022-12-04T14:55:42.554Z,20.70
2022-12-04T14:58:34.663Z,20.52
2022-12-04T15:01:07.601Z,19.55
2022-12-04T15:03:38.385Z,20.90
2022-12-04T15:06:09.941Z,21.98
2022-12-04T15:08:50.903Z,20.77
2022-12-04T15:11:38.420Z,20.90
2022-12-04T15:14:14.298Z,18.90
2022-12-04T15:16:44.608Z,19.20
2022-12-04T15:19:21.387Z,20.55
2022-12-04T15:21:50.509Z,20.30
2022-12-04T15:24:23.476Z,20.83
2022-12-04T15:26:53.780Z,18.73
2022-12-04T15:29:27.227Z,19.70
2022-12-04T15:31:59.750Z,20.00
2022-12-04T15:34:37.579Z,19.52
2022-12-04T15:37:08.530Z,20.25
2022-12-04T15:39:38.310Z,20.35
2022-12-04T15:44:36.741Z,20.02
2022-12-04T15:47:21.758Z,18.15
2022-12-04T15:49:50.846Z,18.48
2022-12-04T15:52:21.097Z,19.30
2022-12-04T15:54:55.357Z,20.35
2022-12-04T15:57:29.174Z,19.27
2022-12-04T16:00:01.224Z,19.60
2022-12-04T16:02:33.916Z,19.92
2022-12-04T16:05:13.483Z,19.02
2022-12-04T16:07:50.518Z,18.60
2022-12-04T16:10:24.488Z,18.08
2022-12-04T16:12:57.434Z,19.38
2022-12-04T16:15:28.112Z,18.73
2022-12-04T16:17:58.290Z,17.35
2022-12-04T16:20:26.771Z,19.15
2022-12-04T16:22:56.579Z,18.20
2022-12-04T16:27:53.339Z,19.15
2022-12-04T16:30:21.877Z,20.02
2022-12-04T16:32:50.303Z,20.40
2022-12-04T16:35:20.428Z,20.90
2022-12-04T16:37:48.899Z,20.75
2022-12-04T16:40:17.622Z,19.50
2022-12-04T16:42:46.239Z,19.63
2022-12-04T16:45:26.069Z,19.48
2022-12-04T16:47:54.606Z,18.27
2022-12-04T16:50:24.685Z,18.70
2022-12-04T16:52:53.270Z,19.55
2022-12-04T16:55:25.665Z,20.98
2022-12-04T16:57:54.142Z,20.42
2022-12-04T17:00:22.644Z,20.15
2022-12-04T17:02:51.318Z,20.58
2022-12-04T17:05:21.478Z,20.80
2022-12-04T17:07:51.554Z,19.67
2022-12-04T17:10:24.055Z,21.75
2022-12-04T17:12:54.063Z,19.80
2022-12-04T17:15:22.870Z,19.50
2022-12-04T17:17:52.023Z,19.88
2022-12-04T17:20:21.768Z,20.15
2022-12-04T17:25:20.065Z,51.28
2022-12-04T17:27:48.502Z,70.57
2022-12-04T17:30:17.833Z,66.95
2022-12-04T17:32:47.731Z,52.88
2022-12-04T17:35:16.143Z,39.33
2022-12-04T17:37:45.638Z,33.65
2022-12-04T17:40:19.189Z,25.40
2022-12-04T17:42:47.642Z,26.65
2022-12-04T17:45:17.060Z,23.92
2022-12-04T17:47:45.480Z,21.85
2022-12-04T17:50:14.026Z,20.88
2022-12-04T17:52:42.442Z,19.60
2022-12-04T17:55:11.115Z,19.85
2022-12-04T17:57:41.254Z,19.80
2022-12-04T18:00:10.808Z,20.05
2022-12-04T18:02:42.716Z,20.27
2022-12-04T18:05:11.812Z,18.05
2022-12-04T18:07:40.233Z,19.25
2022-12-04T18:10:09.615Z,20.02
2022-12-04T18:12:38.052Z,20.02
2022-12-04T18:15:08.902Z,20.17
2022-12-04T18:17:38.849Z,21.38
2022-12-04T18:20:10.076Z,20.50
2022-12-04T18:22:38.928Z,20.13
2022-12-04T18:25:09.144Z,20.10
2022-12-04T18:27:41.685Z,19.33
2022-12-04T18:30:12.616Z,20.20
2022-12-04T18:32:41.032Z,19.52
2022-12-04T18:35:10.012Z,19.85
2022-12-04T18:37:38.445Z,19.55
2022-12-04T18:40:08.712Z,21.17
2022-12-04T18:42:37.594Z,22.27
2022-12-04T18:45:06.836Z,23.35
2022-12-04T18:47:36.682Z,22.02
2022-12-04T18:50:05.402Z,23.27
2022-12-04T18:52:38.481Z,23.58
2022-12-04T18:55:07.268Z,20.92
2022-12-04T18:57:35.770Z,21.75
2022-12-04T19:00:06.040Z,21.58
2022-12-04T19:02:36.141Z,19.98
2022-12-04T19:05:04.702Z,20.05
2022-12-04T19:07:33.326Z,21.73
2022-12-04T19:10:10.788Z,21.23
2022-12-04T19:12:41.047Z,22.77
2022-12-04T19:15:09.996Z,21.38
2022-12-04T19:17:39.795Z,21.27
2022-12-04T19:22:37.274Z,20.05
2022-12-04T19:25:06.914Z,20.70
2022-12-04T19:27:35.332Z,21.52
2022-12-04T19:30:03.876Z,20.15
2022-12-04T19:32:33.646Z,21.00
2022-12-04T19:37:31.706Z,20.70
2022-12-04T19:40:00.154Z,21.83
2022-12-04T19:42:31.925Z,22.35
2022-12-04T19:45:00.357Z,21.52
2022-12-04T19:47:28.791Z,21.77
2022-12-04T19:49:57.834Z,23.13
2022-12-04T19:52:27.913Z,23.75
2022-12-04T19:54:56.452Z,24.23
2022-12-04T19:57:24.819Z,22.83
2022-12-04T19:59:53.213Z,24.42
2022-12-04T20:02:21.773Z,24.80
2022-12-04T20:04:50.297Z,24.15
2022-12-04T20:07:18.696Z,24.15
2022-12-04T20:09:52.118Z,22.98
2022-12-04T20:12:21.269Z,23.38
2022-12-04T20:14:49.635Z,24.02
2022-12-04T20:17:18.096Z,23.27
2022-12-04T20:19:46.450Z,23.30
2022-12-04T20:22:14.817Z,23.42
2022-12-04T20:24:43.251Z,24.15
2022-12-04T20:27:13.033Z,23.73
2022-12-04T20:32:09.629Z,21.80
2022-12-04T20:34:43.321Z,23.42
2022-12-04T20:37:12.587Z,24.33
2022-12-04T20:39:41.449Z,24.17
2022-12-04T20:42:09.904Z,22.13
2022-12-04T20:44:39.741Z,24.98
2022-12-04T20:47:08.430Z,26.40
2022-12-04T20:49:37.248Z,23.25
2022-12-04T20:52:06.019Z,24.03
2022-12-04T20:54:40.992Z,22.58
2022-12-04T20:57:10.159Z,23.80
2022-12-04T20:59:41.229Z,24.35
2022-12-04T21:02:11.542Z,22.15
2022-12-04T21:04:40.339Z,22.98
2022-12-04T21:07:09.300Z,23.57
2022-12-04T21:09:37.741Z,23.17
2022-12-04T21:12:27.440Z,23.17
2022-12-04T21:15:15.481Z,21.27
2022-12-04T21:17:44.109Z,24.25
2022-12-04T21:20:13.407Z,22.48
2022-12-04T21:22:41.947Z,23.90
2022-12-04T21:25:10.978Z,22.38
2022-12-04T21:27:39.577Z,21.50
2022-12-04T21:30:11.122Z,21.58
2022-12-04T21:32:39.640Z,20.58
2022-12-04T21:35:08.764Z,22.73
2022-12-04T21:37:37.323Z,23.10
2022-12-04T21:40:06.966Z,22.25
2022-12-04T21:42:35.623Z,21.98
2022-12-04T21:45:06.211Z,23.10
2022-12-04T21:47:37.310Z,23.02
2022-12-04T21:50:06.921Z,21.52
2022-12-04T21:52:35.499Z,22.10
2022-12-04T21:55:05.202Z,22.52
2022-12-04T22:00:02.186Z,20.08
2022-12-04T22:02:52.175Z,21.33
2022-12-04T22:05:20.781Z,20.90
2022-12-04T22:07:49.709Z,21.05
2022-12-04T22:10:18.440Z,21.23
2022-12-04T22:12:50.729Z,22.30
2022-12-04T22:15:20.011Z,22.15
2022-12-04T22:17:48.505Z,22.07
2022-12-04T22:20:18.670Z,20.67
2022-12-04T22:22:47.364Z,20.77
2022-12-04T22:25:16.048Z,20.83
2022-12-04T22:27:44.605Z,18.67
2022-12-04T22:30:14.157Z,20.75
2022-12-04T22:32:42.778Z,18.70
2022-12-04T22:35:11.735Z,23.00
2022-12-04T22:37:44.603Z,20.67
2022-12-04T22:40:14.264Z,22.02
2022-12-04T22:42:43.017Z,20.40
2022-12-04T22:45:12.421Z,19.77
2022-12-04T22:47:40.954Z,19.52
2022-12-04T22:50:10.430Z,19.60
2022-12-04T22:52:39.104Z,20.40
2022-12-04T22:55:09.612Z,20.08
2022-12-04T22:57:38.099Z,20.83
2022-12-04T23:00:09.485Z,19.25
2022-12-04T23:02:38.097Z,19.88
2022-12-04T23:05:06.943Z,19.10
2022-12-04T23:07:35.488Z,20.00
2022-12-04T23:10:04.123Z,20.17
2022-12-04T23:12:34.101Z,20.38
2022-12-04T23:15:02.632Z,21.25
2022-12-04T23:17:32.095Z,20.63
2022-12-04T23:20:00.640Z,20.88
2022-12-04T23:22:29.133Z,20.73
2022-12-04T23:24:57.706Z,21.40
2022-12-04T23:27:26.270Z,21.77
2022-12-04T23:29:56.148Z,22.50
2022-12-04T23:32:24.843Z,21.00
2022-12-04T23:34:54.144Z,23.60
2022-12-04T23:37:22.638Z,21.17
2022-12-04T23:39:51.218Z,22.17
2022-12-04T23:42:19.760Z,21.70
2022-12-04T23:44:48.331Z,22.75
2022-12-04T23:47:18.306Z,21.48
2022-12-04T23:49:46.904Z,20.75
2022-12-04T23:52:15.418Z,21.65
2022-12-04T23:54:43.964Z,21.30
2022-12-04T23:57:12.470Z,20.67
2022-12-04T23:59:41.156Z,20.45
